Track Бородулина Ольга

Time Latitude Longitude Accuracy (66% radius in meters) Altitude (meters) Speed (km/hour) Bearing (degrees) Battery (%) GPS flag
09:33:48 60.370953 29.556332 8 84 0.13201582431793 215.43348693848 67 1 delete
09:33:35 60.370966 29.556308 6 78 0 31.328050613403 67 1 delete
09:33:23 60.370969 29.556294 8 80 0 217.45039367676 67 1 delete
09:33:10 60.370995 29.556316 8 87 0 217.45039367676 67 1 delete
09:32:58 60.371021 29.556320 6 81 0 4.5369167327881 67 1 delete
09:32:52 60.371010 29.556331 6 82 0.33909073472023 4.5369167327881 67 1 delete
09:32:45 60.370984 29.556337 6 86 0 207.5936126709 67 1 delete
09:32:33 60.370963 29.556306 6 82 0 207.5936126709 67 1 delete
09:32:20 60.370998 29.556288 6 79 0 207.5936126709 67 1 delete
09:32:07 60.370989 29.556290 8 80 0 171.00413513184 67 1 delete
09:31:55 60.370989 29.556284 6 79 0 171.00413513184 67 1 delete
09:31:42 60.370977 29.556298 8 80 0 223.59869384766 67 1 delete
09:31:30 60.370950 29.556271 6 85 0 223.59869384766 67 1 delete
09:31:19 60.370967 29.556288 6 81 0 223.59869384766 67 1 delete
09:31:18 60.370969 29.556290 6 80 0 223.59869384766 67 1 delete
09:31:05 60.370980 29.556346 6 78 0 67.834899902344 67 1 delete
09:30:53 60.370976 29.556378 6 70 0 129.58108520508 67 1 delete
09:30:41 60.370983 29.556397 8 64 0 250.24368286133 67 1 delete
09:30:28 60.370973 29.556335 12 71 0.30008184909821 204.45686340332 67 1 delete
09:30:16 60.370991 29.556359 8 57 0 302.14758300781 67 1 delete
09:30:04 60.370997 29.556408 16 63 0 302.14758300781 67 1 delete
09:29:52 60.370992 29.556397 8 61 0 302.14758300781 67 1 delete
09:29:39 60.370977 29.556390 12 65 0 302.14758300781 67 1 delete
09:29:25 60.370982 29.556391 6 79 0 255.53593444824 67 1 delete
09:29:12 60.370987 29.556378 12 73 0 255.53593444824 67 1 delete
09:28:59 60.370987 29.556378 12 57 0 255.53593444824 67 1 delete
09:28:46 60.371013 29.556350 8 74 0 261.81732177734 67 1 delete
09:28:33 60.370991 29.556371 8 73 0 118.35099029541 67 1 delete
09:28:19 60.370965 29.556308 16 48 0 240.69302368164 67 1 delete
09:28:06 60.370991 29.556328 12 64 0 222.39933776855 67 1 delete
09:27:52 60.371003 29.556369 12 85 0 222.39933776855 67 1 delete
09:27:39 60.371003 29.556369 8 79 0 222.39933776855 67 1 delete
09:27:27 60.371003 29.556369 12 63 0 222.39933776855 67 1 delete
09:27:14 60.370999 29.556357 8 58 0 222.39933776855 67 1 delete
09:27:03 60.370959 29.556311 6 70 0 222.39933776855 67 1 delete
09:27:01 60.370950 29.556301 6 69 0 222.39933776855 67 1 delete
09:26:49 60.370922 29.556308 8 59 0 222.39933776855 67 1 delete
09:26:41 60.370916 29.556345 8 56 0 222.39933776855 67 1 delete
09:26:36 60.370925 29.556317 6 59 0 241.46228027344 67 1 delete
09:26:27 60.370942 29.556268 12 68 0 261.06594848633 67 1 delete
09:26:24 60.370953 29.556254 8 76 0 261.06594848633 67 1 delete
09:26:13 60.370987 29.556283 12 90 0 236.71089172363 67 1 delete
09:26:11 60.370985 29.556330 8 89 0 236.71089172363 67 1 delete
09:25:58 60.370982 29.556383 12 61 0 236.71089172363 67 1 delete
09:25:45 60.370982 29.556383 12 62 0 236.71089172363 67 1 delete
09:25:32 60.370986 29.556368 6 60 0 236.71089172363 67 1 delete
09:25:19 60.370975 29.556391 8 59 0 236.71089172363 67 1 delete
09:25:07 60.371004 29.556393 8 62 0 62.213600158691 67 1 delete
09:25:06 60.371004 29.556387 12 63 0 62.213600158691 67 1 delete
09:24:55 60.371016 29.556316 8 78 0 225.95776367188 67 1 delete